Time;durP1;ratioP1;P1;durP2;ratioP2;P2;SDS_P1;SDS_P2;PMS_P1;PMS_P2;Temp;Humidity;BMP_temperature;BMP_pressure;BME280_temperature;BME280_humidity;BME280_pressure;Samples;Min_cycle;Max_cycle;Signal;HPM_P1;HPM_P2
2024/04/13 00:01:22;;;;;;;12.70;2.47;;;11.70;92.50;;;;;;6398013;22;20064;-93
2024/04/13 00:03:50;;;;;;;14.23;2.47;;;11.60;92.80;;;;;;6396237;22;19998;-93
2024/04/13 00:06:17;;;;;;;14.57;2.10;;;11.70;93.20;;;;;;6393700;22;19990;-94
2024/04/13 00:08:46;;;;;;;13.07;1.67;;;11.60;93.70;;;;;;6395946;22;19995;-93
2024/04/13 00:11:11;;;;;;;9.77;2.17;;;11.60;94.20;;;;;;6394380;22;19998;-94
2024/04/13 00:13:38;;;;;;;14.40;2.33;;;11.50;94.50;;;;;;6390701;22;20009;-96
2024/04/13 00:16:04;;;;;;;15.05;1.70;;;11.60;94.90;;;;;;6387098;22;19991;-93
2024/04/13 00:18:32;;;;;;;10.65;1.67;;;11.50;95.20;;;;;;6386241;22;20018;-94
2024/04/13 00:20:58;;;;;;;8.60;1.90;;;11.50;95.60;;;;;;6385576;22;20006;-94
2024/04/13 00:23:24;;;;;;;14.93;3.50;;;11.50;96.00;;;;;;6385513;22;20002;-92
2024/04/13 00:25:53;;;;;;;11.80;2.10;;;11.50;96.40;;;;;;6385408;22;20381;-94
2024/04/13 00:28:19;;;;;;;14.05;1.85;;;11.50;96.80;;;;;;6384640;22;19994;-95
2024/04/13 00:30:46;;;;;;;9.63;2.40;;;11.50;97.30;;;;;;6384995;22;19998;-94
2024/04/13 00:33:13;;;;;;;11.60;2.05;;;11.50;97.60;;;;;;6385353;22;19999;-95
2024/04/13 00:35:39;;;;;;;11.88;2.22;;;11.50;98.00;;;;;;6384735;22;19999;-95
2024/04/13 00:38:05;;;;;;;8.10;1.58;;;11.40;98.40;;;;;;6385167;22;20016;-94
2024/04/13 00:40:31;;;;;;;12.18;1.52;;;11.40;98.90;;;;;;6385452;22;20018;-94
2024/04/13 00:43:10;;;;;;;13.30;1.90;;;11.40;99.30;;;;;;6384733;22;20405;-94
2024/04/13 00:45:45;;;;;;;10.32;1.85;;;11.40;99.80;;;;;;6385432;22;19994;-95
2024/04/13 00:48:19;;;;;;;14.80;2.10;;;11.50;99.90;;;;;;6388093;22;20006;-93
2024/04/13 00:50:48;;;;;;;15.65;2.38;;;11.50;99.90;;;;;;6429061;22;20472;-94
2024/04/13 00:53:16;;;;;;;16.15;2.35;;;11.50;99.90;;;;;;6435415;22;20030;-95
2024/04/13 00:55:45;;;;;;;13.15;1.88;;;11.50;99.90;;;;;;6435585;22;19990;-94
2024/04/13 00:58:12;;;;;;;17.75;2.63;;;11.50;99.90;;;;;;6429045;22;20007;-94
2024/04/13 01:00:39;;;;;;;16.48;2.70;;;11.50;99.90;;;;;;6391671;22;20002;-93
2024/04/13 01:03:05;;;;;;;10.13;2.03;;;11.50;99.90;;;;;;6434642;22;20006;-94
2024/04/13 01:05:34;;;;;;;13.05;2.30;;;11.40;99.90;;;;;;6388480;22;19995;-94
2024/04/13 01:08:01;;;;;;;12.70;2.17;;;11.50;99.90;;;;;;6384792;22;20417;-93
2024/04/13 01:10:27;;;;;;;12.65;2.28;;;11.50;99.90;;;;;;6426053;22;19995;-92
2024/04/13 01:12:53;;;;;;;17.38;2.53;;;11.50;99.90;;;;;;6425580;22;19994;-95
2024/04/13 01:15:19;;;;;;;9.43;2.30;;;11.50;99.90;;;;;;6384676;22;20002;-94
2024/04/13 01:17:47;;;;;;;7.75;2.00;;;11.60;99.90;;;;;;6384429;22;20441;-94
2024/04/13 01:20:13;;;;;;;16.88;2.97;;;11.60;99.90;;;;;;6384224;22;20026;-93
2024/04/13 01:22:43;;;;;;;17.70;4.13;;;11.60;99.90;;;;;;6425722;22;19990;-94
2024/04/13 01:25:09;;;;;;;16.13;3.17;;;11.60;99.90;;;;;;6425955;22;19996;-94
2024/04/13 01:27:36;;;;;;;10.32;2.88;;;11.60;99.90;;;;;;6426196;22;19990;-93
2024/04/13 01:30:04;;;;;;;11.07;2.28;;;11.60;99.90;;;;;;6426043;22;19997;-94
2024/04/13 01:32:30;;;;;;;10.70;2.28;;;11.60;99.90;;;;;;6425472;22;20445;-93
2024/04/13 01:35:07;;;;;;;13.88;3.25;;;11.60;99.90;;;;;;6384778;22;20026;-93
2024/04/13 01:37:33;;;;;;;16.70;4.82;;;11.60;99.90;;;;;;6426984;22;19990;-93
2024/04/13 01:39:59;;;;;;;15.77;6.13;;;11.50;99.90;;;;;;6384891;22;20005;-92
2024/04/13 01:42:25;;;;;;;16.50;6.47;;;11.50;99.90;;;;;;6383917;22;20002;-93
2024/04/13 01:44:50;;;;;;;18.70;5.78;;;11.50;99.90;;;;;;6384483;22;20294;-93
2024/04/13 01:47:17;;;;;;;13.68;3.53;;;11.50;99.90;;;;;;6384638;22;20365;-93
2024/04/13 01:49:42;;;;;;;14.52;5.00;;;11.50;99.90;;;;;;6383870;22;19990;-94
2024/04/13 01:52:09;;;;;;;25.20;12.32;;;11.50;99.90;;;;;;6385399;22;19994;-92
2024/04/13 01:54:34;;;;;;;21.25;8.02;;;11.50;99.90;;;;;;6427902;22;20433;-93
2024/04/13 01:57:00;;;;;;;19.52;9.93;;;11.50;99.90;;;;;;6385806;22;19995;-93
2024/04/13 01:59:26;;;;;;;15.60;5.40;;;11.50;99.90;;;;;;6389208;22;20009;-93
2024/04/13 02:01:51;;;;;;;23.95;11.63;;;11.50;99.90;;;;;;6388112;22;19991;-94
2024/04/13 02:04:17;;;;;;;14.18;6.82;;;11.50;99.90;;;;;;6383724;22;20042;-95
2024/04/13 02:06:43;;;;;;;14.73;8.45;;;11.50;99.90;;;;;;6382948;22;20072;-94
2024/04/13 02:09:13;;;;;;;15.43;7.93;;;11.50;99.90;;;;;;6384010;22;20006;-95
2024/04/13 02:11:39;;;;;;;14.55;6.60;;;11.50;99.90;;;;;;6383929;22;20003;-94
2024/04/13 02:14:04;;;;;;;15.65;5.55;;;11.50;99.90;;;;;;6425368;22;19990;-94
2024/04/13 02:16:30;;;;;;;12.20;5.38;;;11.50;99.90;;;;;;6383689;22;19990;-94
2024/04/13 02:18:56;;;;;;;13.73;4.50;;;11.40;99.90;;;;;;6383896;22;19998;-94
2024/04/13 02:21:24;;;;;;;19.33;6.30;;;11.50;99.90;;;;;;6382270;22;19999;-94
2024/04/13 02:23:50;;;;;;;12.55;3.92;;;11.50;99.90;;;;;;6382544;22;19990;-94
2024/04/13 02:26:16;;;;;;;26.73;4.60;;;11.50;99.90;;;;;;6382963;22;20001;-94
2024/04/13 02:28:42;;;;;;;18.73;3.92;;;11.50;99.90;;;;;;6384527;22;19991;-94
2024/04/13 02:31:07;;;;;;;12.75;4.28;;;11.50;99.90;;;;;;6383836;22;20341;-94
2024/04/13 02:33:33;;;;;;;7.65;3.95;;;11.50;99.90;;;;;;6381769;22;19998;-94
2024/04/13 02:36:03;;;;;;;13.15;5.80;;;11.40;99.90;;;;;;6383979;22;19986;-93
2024/04/13 02:38:31;;;;;;;12.10;4.15;;;11.40;99.90;;;;;;6426178;22;20002;-92
2024/04/13 02:40:58;;;;;;;24.98;10.15;;;11.40;99.90;;;;;;6424031;22;19995;-92
2024/04/13 02:43:24;;;;;;;16.45;8.57;;;11.40;99.90;;;;;;6424933;22;19990;-93
2024/04/13 02:45:50;;;;;;;14.57;7.32;;;11.40;99.90;;;;;;6425857;22;20035;-93
2024/04/13 02:48:16;;;;;;;16.30;5.55;;;11.40;99.90;;;;;;6390456;22;20006;-92
2024/04/13 02:50:44;;;;;;;11.95;6.97;;;11.40;99.90;;;;;;6390569;22;19990;-92
2024/04/13 02:53:09;;;;;;;12.55;5.45;;;11.40;99.90;;;;;;6432668;22;20015;-94
2024/04/13 02:55:35;;;;;;;13.20;7.72;;;11.40;99.90;;;;;;6390266;22;19995;-93
2024/04/13 02:58:01;;;;;;;8.93;3.10;;;11.40;99.90;;;;;;6388437;22;20294;-93
2024/04/13 03:00:26;;;;;;;8.65;3.45;;;11.40;99.90;;;;;;6386352;22;20006;-93
2024/04/13 03:02:53;;;;;;;7.93;2.60;;;11.30;99.90;;;;;;6385145;22;20282;-93
2024/04/13 03:05:18;;;;;;;11.05;2.85;;;11.30;99.90;;;;;;6384071;22;20001;-93
2024/04/13 03:07:44;;;;;;;12.13;3.42;;;11.30;99.90;;;;;;6383097;22;20002;-93
2024/04/13 03:10:11;;;;;;;23.92;6.25;;;11.30;99.90;;;;;;6383382;22;20005;-93
2024/04/13 03:12:37;;;;;;;15.18;3.25;;;11.20;99.90;;;;;;6383078;22;19991;-93
2024/04/13 03:15:03;;;;;;;11.20;3.08;;;11.20;99.90;;;;;;6383865;22;19995;-94
2024/04/13 03:17:29;;;;;;;10.80;2.53;;;11.20;99.90;;;;;;6424530;22;19995;-92
2024/04/13 03:19:55;;;;;;;11.30;3.22;;;11.20;99.90;;;;;;6384060;22;20410;-93
2024/04/13 03:22:21;;;;;;;13.25;3.00;;;11.20;99.90;;;;;;6382947;22;20009;-93
2024/04/13 03:24:46;;;;;;;17.58;7.47;;;11.20;99.90;;;;;;6382691;22;19999;-94
2024/04/13 03:27:12;;;;;;;15.75;6.60;;;11.10;99.90;;;;;;6382781;22;20010;-92
2024/04/13 03:29:39;;;;;;;20.88;5.95;;;11.10;99.90;;;;;;6383027;22;20298;-94
2024/04/13 03:32:05;;;;;;;12.38;2.85;;;11.10;99.90;;;;;;6425660;22;20010;-93
2024/04/13 03:34:31;;;;;;;14.40;5.78;;;11.10;99.90;;;;;;6428098;22;20433;-92
2024/04/13 03:36:57;;;;;;;11.48;3.47;;;11.00;99.90;;;;;;6386670;22;20002;-94
2024/04/13 03:39:22;;;;;;;14.07;3.65;;;11.10;99.90;;;;;;6390831;22;20109;-93
2024/04/13 03:41:48;;;;;;;18.63;6.85;;;11.00;99.90;;;;;;6403329;22;20290;-93
2024/04/13 03:44:14;;;;;;;16.63;4.80;;;11.00;99.90;;;;;;6403311;22;19983;-93
2024/04/13 03:46:40;;;;;;;12.35;3.28;;;10.90;99.90;;;;;;6404909;22;20001;-93
2024/04/13 03:49:09;;;;;;;17.42;7.70;;;10.90;99.90;;;;;;6404836;22;20003;-94
2024/04/13 03:51:35;;;;;;;22.95;12.25;;;10.90;99.90;;;;;;6405465;22;19995;-95
2024/04/13 03:54:01;;;;;;;22.17;10.82;;;10.90;99.90;;;;;;6445534;22;19994;-92
2024/04/13 03:56:27;;;;;;;21.27;12.23;;;10.90;99.90;;;;;;6438620;22;20365;-94
2024/04/13 03:58:52;;;;;;;27.83;13.80;;;10.90;99.90;;;;;;6390391;22;19994;-94
2024/04/13 04:01:18;;;;;;;24.80;7.60;;;10.90;99.90;;;;;;6388353;22;20005;-94
2024/04/13 04:03:44;;;;;;;24.13;14.20;;;10.90;99.90;;;;;;6385293;22;20003;-93
2024/04/13 04:06:10;;;;;;;25.77;12.95;;;10.90;99.90;;;;;;6384862;22;20009;-94
2024/04/13 04:08:35;;;;;;;16.33;9.05;;;10.90;99.90;;;;;;6385309;22;20464;-94
2024/04/13 04:11:01;;;;;;;27.90;13.73;;;10.90;99.90;;;;;;6385555;22;19998;-93
2024/04/13 04:13:27;;;;;;;25.20;12.43;;;10.80;99.90;;;;;;6384610;22;20310;-93
2024/04/13 04:15:52;;;;;;;23.33;8.93;;;10.80;99.90;;;;;;6385307;22;19990;-93
2024/04/13 04:18:18;;;;;;;21.65;9.93;;;10.80;99.90;;;;;;6384597;22;20014;-93
2024/04/13 04:20:48;;;;;;;22.98;10.30;;;10.70;99.90;;;;;;6384989;22;20069;-93
2024/04/13 04:23:14;;;;;;;14.23;4.63;;;10.70;99.90;;;;;;6426323;22;20017;-93
2024/04/13 04:25:40;;;;;;;17.23;4.70;;;10.80;99.90;;;;;;6385545;22;20264;-93
2024/04/13 04:28:06;;;;;;;17.90;3.53;;;10.80;99.90;;;;;;6384856;22;20005;-95
2024/04/13 04:30:32;;;;;;;9.70;3.47;;;10.70;99.90;;;;;;6426692;22;20416;-93
2024/04/13 04:32:58;;;;;;;17.17;5.47;;;10.70;99.90;;;;;;6384839;22;19998;-93
2024/04/13 04:35:23;;;;;;;13.43;4.35;;;10.70;99.90;;;;;;6383905;22;20412;-94
2024/04/13 04:37:49;;;;;;;14.23;4.28;;;10.60;99.90;;;;;;6383825;22;19995;-94
2024/04/13 04:40:15;;;;;;;10.32;3.97;;;10.60;99.90;;;;;;6383852;22;20522;-93
2024/04/13 04:42:41;;;;;;;16.65;3.20;;;10.60;99.90;;;;;;6384365;22;20305;-93
2024/04/13 04:45:07;;;;;;;15.93;3.33;;;10.60;99.90;;;;;;6384375;22;19995;-94
2024/04/13 04:47:34;;;;;;;12.13;2.45;;;10.50;99.90;;;;;;6384729;22;20414;-94
2024/04/13 04:50:00;;;;;;;10.50;2.70;;;10.50;99.90;;;;;;6424321;22;19998;-94
2024/04/13 04:52:26;;;;;;;13.70;2.58;;;10.40;99.90;;;;;;6422506;22;20262;-93
2024/04/13 04:54:55;;;;;;;15.45;2.92;;;10.40;99.90;;;;;;6383758;22;19998;-93
2024/04/13 04:57:20;;;;;;;9.82;2.78;;;10.40;99.90;;;;;;6384356;22;20413;-92
2024/04/13 04:59:46;;;;;;;11.60;3.30;;;10.40;99.90;;;;;;6384496;22;20066;-93
2024/04/13 05:02:12;;;;;;;11.18;2.47;;;10.30;99.90;;;;;;6384664;22;20043;-94
2024/04/13 05:04:38;;;;;;;13.18;2.72;;;10.30;99.90;;;;;;6384297;22;20005;-94
2024/04/13 05:07:04;;;;;;;7.78;3.00;;;10.30;99.90;;;;;;6384716;22;19994;-94
2024/04/13 05:09:29;;;;;;;11.10;2.80;;;10.20;99.90;;;;;;6384110;22;20065;-93
2024/04/13 05:11:55;;;;;;;13.50;3.03;;;10.20;99.90;;;;;;6383275;22;20016;-94
2024/04/13 05:14:21;;;;;;;14.93;3.70;;;10.20;99.90;;;;;;6384340;22;19995;-93
2024/04/13 05:16:47;;;;;;;11.52;3.22;;;10.20;99.90;;;;;;6383814;22;20002;-93
2024/04/13 05:19:12;;;;;;;17.67;3.20;;;10.20;99.90;;;;;;6384291;22;19999;-93
2024/04/13 05:21:38;;;;;;;12.52;2.72;;;10.20;99.90;;;;;;6384736;22;20287;-93
2024/04/13 05:24:05;;;;;;;16.45;4.18;;;10.10;99.90;;;;;;6384481;22;20035;-93
2024/04/13 05:26:31;;;;;;;10.48;2.50;;;10.10;99.90;;;;;;6426265;22;19999;-92
2024/04/13 05:28:57;;;;;;;13.93;2.72;;;10.10;99.90;;;;;;6426502;22;20072;-93
2024/04/13 05:31:23;;;;;;;16.40;3.22;;;10.10;99.90;;;;;;6384635;22;20373;-93
2024/04/13 05:33:49;;;;;;;16.55;3.00;;;10.10;99.90;;;;;;6382716;22;19998;-94
2024/04/13 05:36:15;;;;;;;13.82;3.88;;;10.00;99.90;;;;;;6383763;22;20414;-93
2024/04/13 05:38:41;;;;;;;19.33;4.22;;;10.00;99.90;;;;;;6391207;22;19999;-93
2024/04/13 05:41:07;;;;;;;12.50;4.05;;;10.00;99.90;;;;;;6399019;22;19991;-93
2024/04/13 05:43:33;;;;;;;20.08;5.05;;;10.10;99.90;;;;;;6401869;22;19987;-93
2024/04/13 05:46:02;;;;;;;16.75;5.07;;;10.10;99.90;;;;;;6404900;22;19997;-93
2024/04/13 05:48:28;;;;;;;11.77;4.13;;;10.10;99.90;;;;;;6446101;22;20055;-93
2024/04/13 05:50:56;;;;;;;10.27;4.30;;;10.10;99.90;;;;;;6441763;22;19997;-93
2024/04/13 05:53:22;;;;;;;15.05;3.47;;;10.10;99.90;;;;;;6445808;22;20030;-92
2024/04/13 05:55:48;;;;;;;10.73;3.10;;;10.10;99.90;;;;;;6436570;22;20031;-92
2024/04/13 05:58:14;;;;;;;12.38;3.22;;;10.10;99.90;;;;;;6400239;22;20004;-93
2024/04/13 06:00:43;;;;;;;11.43;2.70;;;10.10;99.90;;;;;;6405474;22;19994;-94
2024/04/13 06:03:09;;;;;;;12.32;3.10;;;10.10;99.90;;;;;;6438812;22;19999;-94
2024/04/13 06:05:35;;;;;;;11.30;2.90;;;10.20;99.90;;;;;;6401262;22;20224;-94
2024/04/13 06:08:01;;;;;;;11.75;2.40;;;10.20;99.90;;;;;;6406081;22;20038;-94
2024/04/13 06:10:27;;;;;;;7.75;2.40;;;10.20;99.90;;;;;;6406453;22;19994;-94
2024/04/13 06:12:53;;;;;;;13.95;3.20;;;10.20;99.90;;;;;;6407322;22;19999;-92
2024/04/13 06:15:19;;;;;;;8.68;2.33;;;10.20;99.90;;;;;;6406912;22;20003;-93
2024/04/13 06:17:44;;;;;;;18.27;2.22;;;10.20;99.90;;;;;;6405571;22;20034;-94
2024/04/13 06:20:11;;;;;;;18.73;3.05;;;10.30;99.90;;;;;;6406216;22;19993;-94
2024/04/13 06:22:37;;;;;;;12.63;2.50;;;10.30;99.90;;;;;;6404013;22;20054;-93
2024/04/13 06:25:09;;;;;;;8.07;1.60;;;10.30;99.90;;;;;;6406330;22;19991;-94
2024/04/13 06:27:35;;;;;;;7.40;2.10;;;10.30;99.90;;;;;;6449205;22;19991;-94
2024/04/13 06:30:01;;;;;;;14.35;2.20;;;10.30;99.90;;;;;;6450638;22;19991;-94
2024/04/13 06:32:26;;;;;;;11.57;1.83;;;10.30;99.90;;;;;;6407626;22;20019;-94
2024/04/13 06:34:52;;;;;;;7.18;1.67;;;10.40;99.90;;;;;;6408160;22;19995;-94
2024/04/13 06:37:18;;;;;;;14.57;2.55;;;10.40;99.90;;;;;;6407142;22;19990;-94
2024/04/13 06:39:44;;;;;;;11.30;1.80;;;10.40;99.90;;;;;;6408161;22;20068;-93
2024/04/13 06:42:10;;;;;;;9.88;1.83;;;10.40;99.90;;;;;;6406326;22;20215;-95
2024/04/13 06:44:36;;;;;;;13.20;2.65;;;10.50;99.90;;;;;;6445108;22;20452;-93
2024/04/13 06:47:02;;;;;;;9.73;2.42;;;10.50;99.90;;;;;;6444545;22;20007;-93
2024/04/13 06:49:28;;;;;;;5.75;1.98;;;10.40;99.90;;;;;;6434571;22;20027;-94
2024/04/13 06:51:54;;;;;;;5.88;2.00;;;10.40;99.90;;;;;;6386025;22;19998;-93
2024/04/13 06:54:20;;;;;;;10.25;2.55;;;10.50;99.90;;;;;;6386870;22;20424;-94
2024/04/13 06:56:46;;;;;;;9.93;2.28;;;10.50;99.90;;;;;;6386080;22;20002;-93
2024/04/13 06:59:12;;;;;;;8.00;2.10;;;10.40;99.90;;;;;;6390288;22;20010;-92
2024/04/13 07:01:38;;;;;;;7.22;1.88;;;10.40;99.90;;;;;;6392244;22;20074;-94
2024/04/13 07:04:04;;;;;;;12.98;2.10;;;10.40;99.90;;;;;;6390191;22;20010;-93
2024/04/13 07:06:36;;;;;;;11.02;2.15;;;10.50;99.90;;;;;;6390899;22;20421;-94
2024/04/13 07:09:02;;;;;;;8.55;2.00;;;10.50;99.90;;;;;;6387125;22;20069;-94
2024/04/13 07:11:29;;;;;;;11.05;1.92;;;10.50;99.90;;;;;;6427076;22;20010;-93
2024/04/13 07:13:57;;;;;;;4.93;1.80;;;10.50;99.90;;;;;;6385812;22;19994;-94
2024/04/13 07:16:23;;;;;;;8.18;2.05;;;10.50;99.90;;;;;;6386316;22;20010;-92
2024/04/13 07:18:49;;;;;;;6.13;1.80;;;10.50;99.90;;;;;;6427938;22;20054;-93
2024/04/13 07:21:14;;;;;;;10.23;2.45;;;10.50;99.90;;;;;;6386365;22;20010;-93
2024/04/13 07:23:40;;;;;;;8.63;2.25;;;10.60;99.90;;;;;;6385778;22;20014;-93
2024/04/13 07:26:06;;;;;;;10.73;2.53;;;10.50;99.90;;;;;;6384445;22;19998;-93
2024/04/13 07:28:32;;;;;;;11.68;3.25;;;10.50;99.90;;;;;;6384886;22;20109;-92
2024/04/13 07:30:58;;;;;;;11.90;2.88;;;10.60;99.90;;;;;;6428690;22;19998;-93
2024/04/13 07:33:24;;;;;;;14.15;3.35;;;10.60;99.90;;;;;;6385509;22;20003;-94
2024/04/13 07:35:50;;;;;;;13.65;2.88;;;10.60;99.90;;;;;;6427048;22;20031;-93
2024/04/13 07:38:16;;;;;;;11.77;3.08;;;10.60;99.90;;;;;;6385032;22;20001;-95
2024/04/13 07:40:42;;;;;;;9.77;2.60;;;10.70;99.90;;;;;;6384714;22;20017;-93
2024/04/13 07:43:07;;;;;;;8.10;2.30;;;10.70;99.90;;;;;;6384914;22;20440;-93
2024/04/13 07:45:33;;;;;;;9.90;2.40;;;10.70;99.90;;;;;;6386194;22;20017;-94
2024/04/13 07:47:59;;;;;;;13.52;2.58;;;10.70;99.90;;;;;;6427112;22;20085;-94
2024/04/13 07:50:25;;;;;;;12.18;2.55;;;10.70;99.90;;;;;;6385383;22;20433;-93
2024/04/13 07:52:51;;;;;;;8.45;2.63;;;10.70;99.90;;;;;;6385881;22;20005;-94
2024/04/13 07:55:16;;;;;;;13.65;2.95;;;10.70;99.90;;;;;;6387071;22;20006;-94
2024/04/13 07:57:42;;;;;;;13.80;3.53;;;10.80;99.90;;;;;;6390685;22;20006;-93
2024/04/13 08:00:11;;;;;;;10.10;2.38;;;10.80;99.90;;;;;;6408284;22;19994;-94
2024/04/13 08:02:37;;;;;;;21.25;2.97;;;10.80;99.90;;;;;;6388987;22;20012;-93
2024/04/13 08:05:03;;;;;;;9.32;2.03;;;10.90;99.90;;;;;;6388994;22;20006;-94
2024/04/13 08:07:29;;;;;;;17.10;3.88;;;10.90;99.90;;;;;;6392189;22;20002;-94
2024/04/13 08:09:55;;;;;;;11.13;2.45;;;10.90;99.90;;;;;;6388968;22;20332;-94
2024/04/13 08:12:21;;;;;;;14.60;2.45;;;10.90;99.90;;;;;;6385237;22;20078;-94
2024/04/13 08:14:47;;;;;;;15.82;2.58;;;10.90;99.90;;;;;;6386275;22;19998;-93
2024/04/13 08:17:13;;;;;;;12.20;2.58;;;11.00;99.90;;;;;;6386683;22;20017;-93
2024/04/13 08:19:39;;;;;;;10.50;2.35;;;11.10;99.90;;;;;;6384635;22;19994;-93
2024/04/13 08:22:06;;;;;;;14.70;3.17;;;11.10;99.90;;;;;;6385682;22;20069;-92
2024/04/13 08:24:32;;;;;;;11.52;2.00;;;11.20;99.90;;;;;;6385461;22;19994;-93
2024/04/13 08:26:57;;;;;;;14.07;2.08;;;11.20;99.90;;;;;;6387507;22;20031;-93
2024/04/13 08:29:23;;;;;;;11.93;2.35;;;11.30;99.90;;;;;;6389495;22;20409;-95
2024/04/13 08:31:49;;;;;;;7.63;2.00;;;11.30;99.90;;;;;;6394818;22;20444;-92
2024/04/13 08:34:18;;;;;;;18.20;2.40;;;11.30;99.90;;;;;;6394731;22;20425;-93
2024/04/13 08:36:44;;;;;;;13.40;2.35;;;11.40;99.90;;;;;;6391723;22;20028;-92
2024/04/13 08:39:13;;;;;;;6.43;1.92;;;11.30;99.90;;;;;;6390955;22;20030;-94
2024/04/13 08:41:58;;;;;;;8.23;2.08;;;11.30;99.90;;;;;;6388312;22;19998;-95
2024/04/13 08:44:25;;;;;;;8.52;1.55;;;11.30;99.90;;;;;;6431810;22;19995;-94
2024/04/13 08:46:53;;;;;;;9.20;1.85;;;11.30;99.90;;;;;;6388303;22;20073;-93
2024/04/13 08:49:21;;;;;;;8.00;1.85;;;11.30;99.90;;;;;;6390974;22;19999;-92
2024/04/13 08:51:47;;;;;;;8.98;2.13;;;11.30;99.90;;;;;;6385336;22;19994;-93
2024/04/13 08:54:14;;;;;;;10.20;1.75;;;11.20;99.90;;;;;;6385000;22;20001;-96
2024/04/13 08:56:40;;;;;;;8.57;1.70;;;11.20;99.90;;;;;;6429219;22;19998;-93
2024/04/13 08:59:12;;;;;;;6.95;2.33;;;11.20;99.90;;;;;;6387995;22;20422;-94
2024/04/13 09:01:43;;;;;;;7.80;1.75;;;11.20;99.90;;;;;;6389372;22;20002;-94
2024/04/13 09:04:08;;;;;;;9.57;2.20;;;11.20;99.90;;;;;;6385143;22;20005;-93
2024/04/13 09:06:34;;;;;;;7.57;1.63;;;11.20;99.90;;;;;;6383454;22;19991;-92
2024/04/13 09:09:08;;;;;;;7.00;1.70;;;11.20;99.90;;;;;;6384144;22;20005;-92
2024/04/13 09:11:37;;;;;;;6.38;1.55;;;11.20;99.90;;;;;;6383525;22;19994;-92
2024/04/13 09:14:04;;;;;;;6.88;1.48;;;11.20;99.90;;;;;;6384251;22;20002;-91
2024/04/13 09:16:47;;;;;;;5.90;1.55;;;11.20;99.90;;;;;;6428289;22;20077;-92
2024/04/13 09:19:14;;;;;;;5.78;1.73;;;11.30;99.90;;;;;;6385321;22;20010;-91
2024/04/13 09:21:57;;;;;;;8.23;1.60;;;11.30;99.90;;;;;;6385279;22;20304;-92
2024/04/13 09:24:27;;;;;;;3.92;1.40;;;11.30;99.90;;;;;;6386646;22;20002;-92
2024/04/13 09:29:49;;;;;;;6.38;2.00;;;11.30;99.90;;;;;;6427313;22;20292;-92
2024/04/13 09:32:27;;;;;;;5.10;1.42;;;11.40;99.90;;;;;;6384436;22;19994;-91
2024/04/13 09:35:21;;;;;;;10.98;4.68;;;11.40;99.90;;;;;;6384717;22;19998;-91
2024/04/13 09:38:03;;;;;;;4.60;1.88;;;11.40;99.90;;;;;;6415952;22;20013;-91
2024/04/13 09:40:34;;;;;;;3.05;1.35;;;11.40;99.90;;;;;;6426739;22;20022;-92
2024/04/13 09:43:00;;;;;;;7.07;2.63;;;11.40;99.90;;;;;;6383830;22;19994;-91
2024/04/13 09:45:26;;;;;;;4.93;1.58;;;11.40;99.90;;;;;;6383524;22;19994;-92
2024/04/13 09:48:18;;;;;;;2.97;1.42;;;11.30;99.90;;;;;;6383637;22;20332;-91
2024/04/13 09:50:47;;;;;;;5.47;1.23;;;11.30;99.90;;;;;;6343117;22;20010;-91
2024/04/13 09:53:13;;;;;;;3.50;1.30;;;11.40;99.90;;;;;;6383210;22;19995;-91
2024/04/13 09:55:39;;;;;;;9.35;1.70;;;11.30;99.90;;;;;;6340344;22;19998;-91
2024/04/13 09:58:08;;;;;;;9.85;1.70;;;11.40;99.90;;;;;;6381240;22;20009;-91
2024/04/13 10:00:36;;;;;;;4.47;1.20;;;11.30;99.90;;;;;;6388461;22;20010;-91
2024/04/13 10:03:02;;;;;;;3.85;1.60;;;11.20;99.90;;;;;;6423090;22;20098;-91
2024/04/13 10:05:31;;;;;;;7.57;2.85;;;11.20;99.90;;;;;;6381333;22;19994;-90
2024/04/13 10:07:59;;;;;;;7.35;1.90;;;11.20;99.90;;;;;;6380966;22;20002;-90
2024/04/13 10:10:26;;;;;;;2.80;1.50;;;11.10;99.90;;;;;;6381280;22;20010;-91
2024/04/13 10:12:54;;;;;;;8.98;1.95;;;11.10;99.90;;;;;;6381542;22;20030;-90
2024/04/13 10:15:20;;;;;;;8.10;2.35;;;11.10;99.90;;;;;;6381354;22;20431;-90
2024/04/13 10:17:48;;;;;;;9.30;2.72;;;11.00;99.90;;;;;;6381674;22;20357;-90
2024/04/13 10:20:14;;;;;;;6.07;1.85;;;11.00;99.90;;;;;;6381473;22;20003;-90
2024/04/13 10:22:39;;;;;;;11.98;2.85;;;11.00;99.90;;;;;;6382080;22;20427;-92
2024/04/13 10:25:08;;;;;;;8.60;2.25;;;11.00;99.90;;;;;;6383353;22;20007;-90
2024/04/13 10:27:34;;;;;;;10.38;2.38;;;11.00;99.90;;;;;;6381658;22;20005;-89
2024/04/13 10:30:02;;;;;;;8.90;2.42;;;10.90;99.90;;;;;;6381657;22;20099;-90
2024/04/13 10:32:28;;;;;;;6.60;2.00;;;10.90;99.90;;;;;;6381820;22;19995;-89
2024/04/13 10:34:58;;;;;;;7.45;2.25;;;10.90;99.90;;;;;;6425600;22;20024;-89
2024/04/13 10:37:38;;;;;;;9.20;2.67;;;10.90;99.90;;;;;;6382231;22;20007;-89
2024/04/13 10:40:06;;;;;;;8.30;2.35;;;10.90;99.90;;;;;;6382304;22;20010;-90
2024/04/13 10:42:39;;;;;;;12.00;2.70;;;10.90;99.90;;;;;;6383698;22;20062;-89
2024/04/13 10:45:15;;;;;;;9.52;3.08;;;10.90;99.90;;;;;;6384349;22;20009;-90
2024/04/13 10:47:42;;;;;;;7.40;2.75;;;11.00;99.90;;;;;;6383352;22;20003;-90
2024/04/13 10:50:13;;;;;;;10.63;2.83;;;11.00;99.90;;;;;;6383949;22;20095;-90
2024/04/13 10:52:39;;;;;;;;;;;11.00;99.90;;;;;;6384395;22;20026;-90
2024/04/13 10:55:05;;;;;;;11.07;2.55;;;10.90;99.90;;;;;;6383224;22;19930;-90
2024/04/13 10:57:31;;;;;;;9.90;2.70;;;11.00;99.90;;;;;;6384222;22;20071;-90
2024/04/13 10:59:57;;;;;;;10.25;2.90;;;11.00;99.90;;;;;;6382391;22;19995;-90
2024/04/13 11:02:22;;;;;;;7.25;2.60;;;11.10;99.90;;;;;;6382687;22;20011;-91
2024/04/13 11:04:49;;;;;;;9.75;2.88;;;11.20;99.90;;;;;;6383570;22;19994;-91
2024/04/13 11:07:15;;;;;;;4.65;2.55;;;11.20;99.90;;;;;;6383167;22;20007;-90
2024/04/13 11:09:41;;;;;;;6.82;2.70;;;11.30;99.90;;;;;;6383161;22;20072;-91
2024/04/13 11:12:08;;;;;;;14.48;2.65;;;11.40;99.90;;;;;;6384295;22;19998;-90
2024/04/13 11:14:35;;;;;;;9.52;2.53;;;11.50;99.90;;;;;;6384844;22;19998;-90
2024/04/13 11:17:00;;;;;;;12.13;2.33;;;11.60;99.90;;;;;;6387955;22;20003;-93
2024/04/13 11:19:26;;;;;;;7.90;2.20;;;11.60;99.90;;;;;;6389876;22;20006;-91
2024/04/13 11:21:54;;;;;;;8.57;2.95;;;11.60;99.90;;;;;;6388915;22;20039;-93
2024/04/13 11:24:19;;;;;;;7.45;2.40;;;11.60;99.90;;;;;;6389789;22;19994;-91
2024/04/13 11:26:48;;;;;;;6.35;2.08;;;11.60;99.90;;;;;;6389039;22;20005;-91
2024/04/13 11:29:14;;;;;;;8.85;2.20;;;11.60;99.90;;;;;;6388028;22;20010;-89
2024/04/13 11:31:40;;;;;;;8.52;1.90;;;11.60;99.90;;;;;;6383675;22;19994;-90
2024/04/13 11:34:06;;;;;;;4.82;1.65;;;11.60;99.90;;;;;;6382417;22;20013;-91
2024/04/13 11:36:32;;;;;;;11.05;2.30;;;11.70;99.90;;;;;;6382459;22;20003;-91
2024/04/13 11:39:02;;;;;;;10.60;2.42;;;11.70;99.90;;;;;;6425160;22;20002;-90
2024/04/13 11:41:31;;;;;;;7.90;3.20;;;11.80;99.90;;;;;;6383829;22;20009;-90
2024/04/13 11:43:59;;;;;;;7.20;1.88;;;11.80;99.90;;;;;;6385928;22;20003;-90
2024/04/13 11:46:25;;;;;;;11.30;1.98;;;11.80;99.90;;;;;;6385953;22;20070;-89
2024/04/13 11:48:53;;;;;;;7.57;1.92;;;11.90;99.90;;;;;;6385550;22;20773;-89
2024/04/13 11:51:20;;;;;;;5.78;1.80;;;11.90;99.90;;;;;;6426832;22;19998;-90
2024/04/13 11:53:46;;;;;;;7.55;1.73;;;11.90;99.90;;;;;;6426167;22;19999;-89
2024/04/13 11:56:13;;;;;;;11.48;2.05;;;11.90;99.90;;;;;;6385252;22;19998;-90
2024/04/13 11:58:49;;;;;;;9.02;2.25;;;11.80;99.90;;;;;;6426675;22;20003;-90
2024/04/13 12:01:15;;;;;;;11.10;2.22;;;11.80;99.90;;;;;;6424558;22;19995;-90
2024/04/13 12:03:41;;;;;;;7.72;1.75;;;11.80;99.90;;;;;;6425641;22;20005;-89
2024/04/13 12:06:07;;;;;;;8.13;1.85;;;11.80;99.90;;;;;;6384106;22;20013;-89
2024/04/13 12:08:34;;;;;;;6.97;2.28;;;11.80;99.90;;;;;;6427296;22;20413;-90
2024/04/13 12:11:00;;;;;;;13.25;3.03;;;11.80;99.90;;;;;;6388320;22;19998;-90
2024/04/13 12:13:30;;;;;;;5.78;1.80;;;11.80;99.90;;;;;;6430553;22;20005;-90
2024/04/13 12:15:56;;;;;;;7.68;2.05;;;11.90;99.90;;;;;;6386676;22;20000;-90
2024/04/13 12:18:23;;;;;;;8.13;2.10;;;11.80;99.90;;;;;;6346861;22;20003;-91
2024/04/13 12:20:49;;;;;;;12.10;2.53;;;11.80;99.90;;;;;;6386923;22;20365;-90
2024/04/13 12:23:16;;;;;;;7.30;1.90;;;11.90;99.90;;;;;;6385688;22;20014;-90
2024/04/13 12:25:45;;;;;;;12.25;3.22;;;11.80;99.90;;;;;;6385567;22;20368;-90
2024/04/13 12:28:10;;;;;;;7.72;2.10;;;11.80;99.90;;;;;;6384026;22;20002;-90
2024/04/13 12:30:39;;;;;;;5.88;1.88;;;11.90;99.90;;;;;;6384973;22;20484;-92
2024/04/13 12:33:06;;;;;;;8.95;2.45;;;11.90;99.90;;;;;;6427339;22;20047;-89
2024/04/13 12:35:32;;;;;;;9.60;2.30;;;11.90;99.90;;;;;;6383552;22;19998;-92
2024/04/13 12:38:00;;;;;;;7.95;1.67;;;11.90;99.90;;;;;;6383886;22;19994;-90
2024/04/13 12:40:29;;;;;;;10.00;2.22;;;11.90;99.90;;;;;;6384609;22;20026;-90
2024/04/13 12:42:55;;;;;;;8.32;2.00;;;11.90;99.90;;;;;;6384861;22;20023;-90